EDT,Max TemperatureF,Mean TemperatureF,Min TemperatureF,Max Dew PointF,MeanDew PointF,Min DewpointF,Max Humidity, Mean Humidity, Min Humidity, Max Sea Level PressureIn, Mean Sea Level PressureIn, Min Sea Level PressureIn, Max VisibilityMiles, Mean VisibilityMiles, Min VisibilityMiles, Max Wind SpeedMPH, Mean Wind SpeedMPH, Max Gust SpeedMPH,PrecipitationIn, CloudCover, Events, WindDirDegrees
2012-10-1,60,56,52,54,51,48,96,84,72,29.91,29.70,29.55,10,8,1,17,6,28,0.34,8,Rain,212
2012-10-2,64,58,52,57,53,50,96,82,67,30.05,29.99,29.92,10,10,7,13,3,16,0.04,5,Rain,171
2012-10-3,65,61,56,63,59,55,93,90,87,30.12,30.07,30.03,10,4,0,7,1,9,0.23,8,Fog-Rain,352
2012-10-4,68,62,55,65,62,54,100,94,87,30.12,30.06,29.99,10,5,0,9,2,13,0.84,7,Fog-Rain,175
2012-10-5,74,66,58,58,57,55,93,73,53,30.00,29.93,29.84,10,9,6,21,7,25,T,5,,190
2012-10-6,65,56,46,61,49,35,93,72,50,29.93,29.78,29.69,10,8,2,20,6,26,0.26,7,Rain,2
2012-10-7,53,49,44,43,37,34,92,73,54,30.09,30.03,29.95,10,10,3,17,4,23,0.29,5,Rain,325
2012-10-8,57,49,41,43,38,30,96,67,38,30.30,30.21,30.10,10,10,9,8,3,10,0.05,5,Rain,125
2012-10-9,59,48,36,43,39,34,92,72,51,30.30,30.22,30.08,10,10,10,14,5,21,0.00,3,,160
2012-10-10,57,52,47,52,48,38,93,76,59,30.08,29.82,29.70,10,7,1,22,8,30,0.17,8,Rain,186
2012-10-11,55,50,44,35,32,26,70,53,35,30.06,29.99,29.82,10,10,10,18,10,26,0.01,6,,250
2012-10-12,50,42,34,39,29,21,70,55,40,30.40,30.15,29.93,10,10,7,24,12,30,0.03,6,Rain,303
2012-10-13,53,40,26,34,25,22,85,59,32,30.45,30.36,30.21,10,10,10,17,5,24,0.04,4,Rain,175
2012-10-14,61,51,40,52,45,36,86,78,70,30.17,29.96,29.76,10,10,8,26,14,36,0.18,7,Rain,183
2012-10-15,71,63,54,56,52,48,86,72,57,29.75,29.62,29.55,10,10,10,28,12,37,T,6,,186
2012-10-16,55,45,34,46,34,30,85,68,50,29.91,29.75,29.61,10,10,10,20,9,28,T,6,Rain,300
2012-10-17,58,45,31,40,34,29,92,67,41,30.00,29.96,29.92,10,10,10,9,3,13,0.00,2,,167
2012-10-18,68,55,42,42,38,36,82,58,34,30.01,29.97,29.91,10,10,10,23,7,30,0.00,1,,168
2012-10-19,60,57,53,56,52,41,100,78,55,29.99,29.82,29.69,10,6,1,18,6,25,1.72,8,Rain,125
2012-10-20,71,59,47,58,53,46,100,74,47,29.71,29.64,29.57,10,7,0,16,5,23,0.07,5,Fog-Rain,193
2012-10-21,56,52,47,46,41,39,93,74,55,29.91,29.82,29.73,10,10,7,20,9,24,0.01,8,Rain,235
2012-10-22,61,51,41,42,40,38,89,68,46,30.06,29.98,29.91,10,10,10,22,5,29,0.00,3,,338
2012-10-23,56,47,38,42,39,36,93,74,55,30.18,30.13,30.06,10,10,10,10,3,14,0.00,3,,356
2012-10-24,58,46,33,39,35,30,96,70,43,30.25,30.20,30.15,10,10,10,12,3,14,0.00,4,,355
2012-10-25,64,51,37,50,42,35,86,67,47,30.23,30.19,30.15,10,10,10,20,7,29,0.00,3,,174
2012-10-26,61,59,56,52,51,50,83,78,72,30.17,30.13,30.09,10,10,10,20,12,29,0.00,5,,181
2012-10-27,65,56,46,54,49,45,96,82,67,30.11,30.05,29.98,10,5,0,7,1,9,0.00,3,Fog,161
2012-10-28,57,53,48,50,48,46,93,85,77,30.04,29.98,29.89,10,7,3,12,4,16,0.00,3,,335
2012-10-29,65,56,47,55,48,45,93,73,52,29.87,29.63,29.32,10,10,5,26,13,37,0.08,6,Rain,24
2012-10-30,70,63,55,56,53,48,93,70,47,29.52,29.45,29.32,10,9,2,24,12,33,0.64,6,Rain,119
2012-10-31,57,52,46,52,44,36,86,75,63,29.51,29.46,29.41,10,10,6,22,9,31,0.04,7,Rain,166